Time;durP1;ratioP1;P1;durP2;ratioP2;P2;SDS_P1;SDS_P2;PMS_P1;PMS_P2;Temp;Humidity;BMP_temperature;BMP_pressure;BME280_temperature;BME280_humidity;BME280_pressure;Samples;Min_cycle;Max_cycle;Signal;HPM_P1;HPM_P2
2022/09/24 00:00:44;;;;;;;;;;;18.10;64.40;;;;;;5013794;28;19910;-86
2022/09/24 00:03:10;;;;;;;;;;;18.20;64.50;;;;;;4996808;28;20384;-87
2022/09/24 00:05:39;;;;;;;;;;;18.20;64.80;;;;;;5013500;28;19909;-85
2022/09/24 00:08:06;;;;;;;;;;;18.10;64.40;;;;;;5013368;28;20397;-85
2022/09/24 00:10:35;;;;;;;;;;;18.10;64.40;;;;;;5014057;28;19909;-85
2022/09/24 00:13:00;;;;;;;;;;;18.10;64.50;;;;;;5014541;28;19914;-84
2022/09/24 00:15:26;;;;;;;;;;;18.10;64.40;;;;;;5012855;28;19996;-85
2022/09/24 00:17:52;;;;;;;;;;;18.10;64.50;;;;;;4996704;28;19925;-86
2022/09/24 00:20:17;;;;;;;;;;;18.10;64.50;;;;;;4996924;28;19921;-85
2022/09/24 00:22:43;;;;;;;;;;;18.10;64.50;;;;;;5015879;28;19925;-84
2022/09/24 00:27:53;;;;;;;;;;;18.10;64.50;;;;;;5017979;28;19949;-85
2022/09/24 00:30:18;;;;;;;;;;;18.00;64.50;;;;;;4984513;28;19981;-85
2022/09/24 00:32:44;;;;;;;;;;;18.00;64.50;;;;;;5001024;28;19917;-84
2022/09/24 00:35:10;;;;;;;;;;;18.00;64.50;;;;;;5016699;28;19920;-85
2022/09/24 00:37:35;;;;;;;;;;;18.00;64.50;;;;;;5000133;28;19936;-85
2022/09/24 00:40:01;;;;;;;;;;;18.00;64.60;;;;;;4984049;28;20274;-86
2022/09/24 00:42:28;;;;;;;;;;;18.00;64.50;;;;;;4999993;28;19917;-85
2022/09/24 00:44:54;;;;;;;;;;;18.00;64.60;;;;;;5000363;28;19914;-86
2022/09/24 00:47:19;;;;;;;;;;;18.00;64.60;;;;;;5000241;28;19972;-85
2022/09/24 00:49:47;;;;;;;;;;;18.00;64.60;;;;;;5016075;28;19917;-85
2022/09/24 00:52:13;;;;;;;;;;;18.00;64.60;;;;;;5017320;28;19913;-85
2022/09/24 00:54:38;;;;;;;;;;;18.00;64.60;;;;;;5016059;28;20012;-85
2022/09/24 00:57:04;;;;;;;;;;;18.00;64.60;;;;;;5016609;28;20341;-86
2022/09/24 00:59:29;;;;;;;;;;;18.00;64.60;;;;;;5000032;28;19918;-85
2022/09/24 01:01:57;;;;;;;;;;;18.00;64.60;;;;;;4999614;28;19918;-86
2022/09/24 01:04:25;;;;;;;;;;;17.90;64.60;;;;;;5000405;28;19949;-85
2022/09/24 01:06:51;;;;;;;;;;;17.90;64.60;;;;;;5016368;28;19916;-85
2022/09/24 01:09:17;;;;;;;;;;;17.90;64.60;;;;;;5016988;28;19913;-86
2022/09/24 01:11:52;;;;;;;;;;;17.90;64.60;;;;;;5015932;28;19917;-85
2022/09/24 01:14:31;;;;;;;;;;;17.90;64.60;;;;;;4999513;28;19921;-85
2022/09/24 01:17:15;;;;;;;;;;;17.90;64.60;;;;;;5015838;28;19940;-85
2022/09/24 01:20:00;;;;;;;;;;;17.90;64.70;;;;;;5016992;28;20363;-85
2022/09/24 01:22:29;;;;;;;;;;;17.90;64.70;;;;;;5015764;28;19917;-85
2022/09/24 01:24:59;;;;;;;;;;;17.90;64.70;;;;;;5016806;28;19916;-85
2022/09/24 01:27:34;;;;;;;;;;;17.90;64.70;;;;;;5015586;28;19948;-86
2022/09/24 01:30:03;;;;;;;;;;;17.90;64.80;;;;;;4999508;28;19920;-85
2022/09/24 01:32:49;;;;;;;;;;;17.90;64.70;;;;;;5015183;28;19910;-86
2022/09/24 01:35:23;;;;;;;;;;;17.90;64.70;;;;;;5015582;28;20000;-85
2022/09/24 01:37:52;;;;;;;;;;;17.80;64.70;;;;;;4999595;28;19921;-85
2022/09/24 01:40:19;;;;;;;;;;;17.80;64.70;;;;;;5015190;28;19910;-85
2022/09/24 01:42:45;;;;;;;;;;;17.80;64.80;;;;;;5015257;28;19914;-86
2022/09/24 01:45:11;;;;;;;;;;;17.80;64.80;;;;;;5014871;28;20279;-86
2022/09/24 01:47:38;;;;;;;;;;;17.80;64.80;;;;;;5015214;28;19913;-86
2022/09/24 01:50:05;;;;;;;;;;;17.80;64.80;;;;;;5015509;28;19916;-87
2022/09/24 01:52:34;;;;;;;;;;;17.80;64.80;;;;;;5015912;28;19959;-87
2022/09/24 01:55:00;;;;;;;;;;;17.80;64.80;;;;;;5016004;28;19909;-85
2022/09/24 01:57:26;;;;;;;;;;;17.80;64.80;;;;;;5014796;28;20396;-86
2022/09/24 01:59:58;;;;;;;;;;;17.70;64.80;;;;;;5014768;28;19909;-88
2022/09/24 02:02:34;;;;;;;;;;;17.80;64.80;;;;;;5014526;28;19976;-85
2022/09/24 02:05:11;;;;;;;;;;;17.80;64.90;;;;;;5015946;28;19940;-85
2022/09/24 02:07:39;;;;;;;;;;;17.70;64.80;;;;;;5015588;28;20382;-85
2022/09/24 02:10:12;;;;;;;;;;;17.70;64.80;;;;;;4998238;28;19913;-87
2022/09/24 02:12:40;;;;;;;;;;;17.80;64.90;;;;;;5015798;28;19913;-85
2022/09/24 02:15:16;;;;;;;;;;;17.70;64.80;;;;;;4998000;28;19975;-86
2022/09/24 02:17:44;;;;;;;;;;;17.70;64.80;;;;;;5014730;28;20004;-85
2022/09/24 02:20:14;;;;;;;;;;;17.70;64.80;;;;;;5014841;28;19909;-86
2022/09/24 02:22:40;;;;;;;;;;;17.70;64.80;;;;;;5015504;28;19953;-85
2022/09/24 02:25:07;;;;;;;;;;;17.70;64.80;;;;;;4997956;28;20451;-88
2022/09/24 02:27:34;;;;;;;;;;;17.70;64.80;;;;;;5014180;28;19916;-85
2022/09/24 02:29:59;;;;;;;;;;;17.70;64.80;;;;;;4999046;28;19972;-85
2022/09/24 02:32:27;;;;;;;;;;;17.70;64.90;;;;;;5014444;28;20305;-85
2022/09/24 02:34:54;;;;;;;;;;;17.70;64.90;;;;;;5014356;28;19914;-85
2022/09/24 02:37:21;;;;;;;;;;;17.70;64.90;;;;;;5014489;28;19917;-86
2022/09/24 02:39:47;;;;;;;;;;;17.60;64.80;;;;;;5014383;28;19964;-87
2022/09/24 02:42:13;;;;;;;;;;;17.70;64.90;;;;;;5013990;28;19914;-85
2022/09/24 02:44:39;;;;;;;;;;;17.70;64.90;;;;;;5013619;28;19925;-83
2022/09/24 02:47:05;;;;;;;;;;;17.60;64.90;;;;;;5015278;28;19934;-85
2022/09/24 02:49:31;;;;;;;;;;;17.60;64.90;;;;;;4997933;28;19914;-87
2022/09/24 02:51:57;;;;;;;;;;;17.60;64.90;;;;;;5015513;28;19921;-85
2022/09/24 02:54:24;;;;;;;;;;;17.60;64.90;;;;;;5015535;28;19933;-85
2022/09/24 02:56:49;;;;;;;;;;;17.60;64.90;;;;;;5013892;28;20384;-85
2022/09/24 02:59:15;;;;;;;;;;;17.60;65.00;;;;;;5014496;28;19914;-84
2022/09/24 03:01:41;;;;;;;;;;;17.60;65.00;;;;;;4997624;28;20286;-86
2022/09/24 03:04:06;;;;;;;;;;;17.60;65.00;;;;;;5013818;28;19914;-85
2022/09/24 03:06:32;;;;;;;;;;;17.60;65.00;;;;;;4997753;28;20358;-85
2022/09/24 03:08:58;;;;;;;;;;;17.60;65.10;;;;;;5013943;28;20353;-85
2022/09/24 03:11:23;;;;;;;;;;;17.50;65.00;;;;;;5013683;28;19953;-85
2022/09/24 03:13:49;;;;;;;;;;;17.50;65.00;;;;;;4997376;28;20331;-85
2022/09/24 03:16:15;;;;;;;;;;;17.60;65.10;;;;;;5013549;28;20394;-84
2022/09/24 03:18:41;;;;;;;;;;;17.50;65.10;;;;;;5013900;28;19925;-85
2022/09/24 03:21:08;;;;;;;;;;;17.50;65.10;;;;;;5014030;28;19914;-86
2022/09/24 03:23:34;;;;;;;;;;;17.50;65.10;;;;;;5013648;28;19914;-85
2022/09/24 03:26:00;;;;;;;;;;;17.50;65.10;;;;;;5013466;28;20383;-86
2022/09/24 03:28:26;;;;;;;;;;;17.50;65.10;;;;;;5013772;28;19925;-86
2022/09/24 03:31:00;;;;;;;;;;;17.50;65.10;;;;;;5014706;28;19995;-85
2022/09/24 03:33:26;;;;;;;;;;;17.50;65.10;;;;;;4998700;28;19917;-85
2022/09/24 03:35:58;;;;;;;;;;;17.50;65.10;;;;;;5013309;28;19960;-85
2022/09/24 03:38:24;;;;;;;;;;;17.50;65.20;;;;;;5014168;28;19968;-86
2022/09/24 03:40:50;;;;;;;;;;;17.50;65.20;;;;;;4997388;28;20251;-85
2022/09/24 03:43:16;;;;;;;;;;;17.50;65.20;;;;;;5014585;28;19921;-85
2022/09/24 03:45:41;;;;;;;;;;;17.50;65.20;;;;;;5013828;28;19921;-85
2022/09/24 03:48:07;;;;;;;;;;;17.50;65.20;;;;;;5014470;28;19965;-86
2022/09/24 03:50:36;;;;;;;;;;;17.50;65.20;;;;;;4997400;28;19917;-85
2022/09/24 03:53:02;;;;;;;;;;;17.50;65.20;;;;;;5014265;28;19957;-85
2022/09/24 03:55:27;;;;;;;;;;;17.50;65.30;;;;;;4997874;28;19921;-85
2022/09/24 03:57:53;;;;;;;;;;;17.40;65.20;;;;;;5018739;28;19918;-85
2022/09/24 04:00:19;;;;;;;;;;;17.50;65.30;;;;;;5017132;28;19918;-86
2022/09/24 04:02:45;;;;;;;;;;;17.50;65.30;;;;;;5017842;28;19925;-87
2022/09/24 04:05:10;;;;;;;;;;;17.40;65.30;;;;;;5001410;28;19913;-86
2022/09/24 04:07:36;;;;;;;;;;;17.40;65.30;;;;;;5016865;28;19924;-86
2022/09/24 04:10:02;;;;;;;;;;;17.40;65.30;;;;;;4984267;28;19914;-85
2022/09/24 04:12:28;;;;;;;;;;;17.40;65.30;;;;;;5017472;28;20346;-85
2022/09/24 04:14:54;;;;;;;;;;;17.40;65.30;;;;;;5016801;28;19913;-85
2022/09/24 04:17:19;;;;;;;;;;;17.40;65.30;;;;;;5016666;28;19922;-85
2022/09/24 04:19:45;;;;;;;;;;;17.40;65.30;;;;;;5018065;28;19929;-85
2022/09/24 04:22:11;;;;;;;;;;;17.40;65.40;;;;;;5017871;28;19917;-85
2022/09/24 04:24:36;;;;;;;;;;;17.40;65.30;;;;;;5017538;28;19917;-84
2022/09/24 04:27:02;;;;;;;;;;;17.40;65.40;;;;;;5016415;28;20047;-85
2022/09/24 04:29:28;;;;;;;;;;;17.40;65.40;;;;;;5016417;28;19917;-85
2022/09/24 04:31:53;;;;;;;;;;;17.40;65.40;;;;;;5016730;28;19914;-85
2022/09/24 04:34:20;;;;;;;;;;;17.40;65.40;;;;;;5016720;28;20270;-85
2022/09/24 04:36:45;;;;;;;;;;;17.40;65.40;;;;;;5000348;28;19922;-85
2022/09/24 04:39:11;;;;;;;;;;;17.40;65.40;;;;;;5017512;28;19976;-85
2022/09/24 04:41:37;;;;;;;;;;;17.40;65.50;;;;;;5017222;28;19972;-85
2022/09/24 04:44:04;;;;;;;;;;;17.40;65.50;;;;;;5016308;28;20004;-84
2022/09/24 04:46:32;;;;;;;;;;;17.40;65.50;;;;;;5000495;28;19914;-85
2022/09/24 04:48:58;;;;;;;;;;;17.30;65.40;;;;;;5000527;28;19917;-85
2022/09/24 04:51:24;;;;;;;;;;;17.40;65.50;;;;;;5017378;28;19944;-85
2022/09/24 04:53:50;;;;;;;;;;;17.30;65.50;;;;;;5032929;28;19917;-85
2022/09/24 04:56:15;;;;;;;;;;;17.30;65.50;;;;;;5015964;28;19957;-85
2022/09/24 04:58:41;;;;;;;;;;;17.30;65.50;;;;;;5017093;28;19921;-85
2022/09/24 05:01:07;;;;;;;;;;;17.30;65.50;;;;;;4983579;28;20274;-83
2022/09/24 05:03:33;;;;;;;;;;;17.30;65.50;;;;;;5016915;28;19932;-85
2022/09/24 05:05:58;;;;;;;;;;;17.30;65.50;;;;;;5017653;28;19914;-86
2022/09/24 05:08:24;;;;;;;;;;;17.30;65.50;;;;;;5015504;28;19920;-86
2022/09/24 05:10:52;;;;;;;;;;;17.30;65.50;;;;;;5015652;28;20424;-85
2022/09/24 05:13:17;;;;;;;;;;;17.30;65.60;;;;;;5016189;28;20425;-84
2022/09/24 05:15:43;;;;;;;;;;;17.30;65.50;;;;;;4999495;28;19976;-85
2022/09/24 05:18:09;;;;;;;;;;;17.30;65.50;;;;;;5015838;28;19921;-85
2022/09/24 05:20:34;;;;;;;;;;;17.30;65.50;;;;;;4999572;28;20012;-86
2022/09/24 05:23:00;;;;;;;;;;;17.30;65.60;;;;;;5016817;28;20492;-85
2022/09/24 05:25:25;;;;;;;;;;;17.30;65.60;;;;;;4999991;28;19973;-84
2022/09/24 05:27:52;;;;;;;;;;;17.30;65.60;;;;;;5016259;28;19913;-85
2022/09/24 05:30:19;;;;;;;;;;;17.30;65.60;;;;;;5015755;28;19910;-85
2022/09/24 05:32:48;;;;;;;;;;;17.30;65.60;;;;;;4999499;28;20019;-86
2022/09/24 05:35:14;;;;;;;;;;;17.30;65.60;;;;;;5015804;28;19936;-84
2022/09/24 05:37:39;;;;;;;;;;;17.30;65.60;;;;;;4999493;28;19921;-86
2022/09/24 05:42:50;;;;;;;;;;;17.30;65.70;;;;;;5014981;28;19948;-85
2022/09/24 05:45:17;;;;;;;;;;;17.30;65.70;;;;;;5016435;28;19921;-85
2022/09/24 05:47:46;;;;;;;;;;;17.20;65.70;;;;;;4999017;28;19924;-85
2022/09/24 05:50:12;;;;;;;;;;;17.20;65.70;;;;;;5016886;28;19937;-86
2022/09/24 05:52:38;;;;;;;;;;;17.20;65.70;;;;;;5015473;28;20004;-87
2022/09/24 05:55:04;;;;;;;;;;;17.20;65.70;;;;;;5015488;28;19964;-87
2022/09/24 05:57:29;;;;;;;;;;;17.20;65.70;;;;;;5016701;28;19921;-86
2022/09/24 05:59:55;;;;;;;;;;;17.20;65.70;;;;;;5014957;28;19944;-84
2022/09/24 06:02:21;;;;;;;;;;;17.20;65.70;;;;;;5014969;28;19924;-85
2022/09/24 06:04:46;;;;;;;;;;;17.20;65.70;;;;;;4982031;28;19913;-85
2022/09/24 06:07:12;;;;;;;;;;;17.20;65.70;;;;;;5000310;28;19918;-84
2022/09/24 06:09:37;;;;;;;;;;;17.20;65.80;;;;;;4999705;28;19920;-85
2022/09/24 06:12:06;;;;;;;;;;;17.20;66.10;;;;;;5014845;28;19953;-85
2022/09/24 06:14:31;;;;;;;;;;;17.20;65.80;;;;;;5015036;28;19940;-85
2022/09/24 06:16:57;;;;;;;;;;;17.20;65.80;;;;;;4998349;28;19925;-86
2022/09/24 06:19:23;;;;;;;;;;;17.20;65.80;;;;;;5015005;28;20277;-84
2022/09/24 06:21:48;;;;;;;;;;;17.20;65.80;;;;;;4998377;28;19917;-85
2022/09/24 06:24:14;;;;;;;;;;;17.20;65.80;;;;;;4998333;28;19968;-85
2022/09/24 06:26:40;;;;;;;;;;;17.20;65.80;;;;;;5014032;28;19979;-84
2022/09/24 06:29:06;;;;;;;;;;;17.20;65.80;;;;;;5014574;28;19917;-84
2022/09/24 06:31:33;;;;;;;;;;;17.20;65.80;;;;;;5014954;28;19913;-85
2022/09/24 06:33:59;;;;;;;;;;;17.20;65.80;;;;;;5015422;28;19909;-86
2022/09/24 06:36:24;;;;;;;;;;;17.20;65.90;;;;;;5013829;28;19920;-84
2022/09/24 06:38:50;;;;;;;;;;;17.20;65.90;;;;;;4998387;28;19913;-86
2022/09/24 06:41:16;;;;;;;;;;;17.20;65.90;;;;;;5014163;28;20331;-84
2022/09/24 06:43:41;;;;;;;;;;;17.20;65.90;;;;;;5014705;28;20255;-85
2022/09/24 06:46:07;;;;;;;;;;;17.10;65.80;;;;;;4982345;28;19917;-85
2022/09/24 06:48:33;;;;;;;;;;;17.20;65.90;;;;;;4981613;28;19914;-85
2022/09/24 06:50:59;;;;;;;;;;;17.20;65.90;;;;;;5013729;28;19917;-85
2022/09/24 06:53:24;;;;;;;;;;;17.20;65.90;;;;;;5013130;28;20008;-85
2022/09/24 06:55:50;;;;;;;;;;;17.20;65.90;;;;;;5013203;28;19913;-84
2022/09/24 06:58:18;;;;;;;;;;;17.10;65.90;;;;;;5013782;28;20291;-85
2022/09/24 07:00:49;;;;;;;;;;;17.20;65.90;;;;;;5013666;28;19936;-85
2022/09/24 07:03:15;;;;;;;;;;;17.20;66.00;;;;;;5014245;28;19913;-85
2022/09/24 07:05:41;;;;;;;;;;;17.20;66.00;;;;;;4997588;28;20255;-85
2022/09/24 07:08:06;;;;;;;;;;;17.20;66.00;;;;;;4997763;28;19917;-85
2022/09/24 07:10:32;;;;;;;;;;;17.20;66.00;;;;;;5013656;28;19913;-86
2022/09/24 07:12:58;;;;;;;;;;;17.10;65.90;;;;;;5013820;28;19918;-85
2022/09/24 07:15:23;;;;;;;;;;;17.20;66.60;;;;;;4997645;28;19925;-86
2022/09/24 07:17:53;;;;;;;;;;;17.20;66.00;;;;;;4997498;28;20362;-84
2022/09/24 07:20:19;;;;;;;;;;;17.20;66.00;;;;;;5014049;28;19918;-84
2022/09/24 07:22:44;;;;;;;;;;;17.20;66.00;;;;;;4997272;28;19917;-85
2022/09/24 07:25:10;;;;;;;;;;;17.20;66.70;;;;;;5014706;28;20020;-86
2022/09/24 07:27:37;;;;;;;;;;;17.20;66.00;;;;;;5013478;28;19914;-86
2022/09/24 07:30:06;;;;;;;;;;;17.20;66.00;;;;;;5013324;28;19948;-88
2022/09/24 07:32:32;;;;;;;;;;;17.10;66.00;;;;;;5014390;28;19921;-85
2022/09/24 07:34:57;;;;;;;;;;;17.20;66.00;;;;;;4998216;28;20294;-89
2022/09/24 07:37:23;;;;;;;;;;;17.20;66.10;;;;;;5015631;28;20322;-86
2022/09/24 07:39:49;;;;;;;;;;;17.20;66.10;;;;;;5015176;28;20231;-85
2022/09/24 07:42:14;;;;;;;;;;;17.20;66.00;;;;;;5013350;28;19918;-85
2022/09/24 07:44:40;;;;;;;;;;;17.20;66.10;;;;;;4997421;28;20358;-86
2022/09/24 07:47:06;;;;;;;;;;;17.10;66.00;;;;;;4997197;28;20389;-86
2022/09/24 07:49:32;;;;;;;;;;;17.20;66.10;;;;;;5014472;28;19913;-86
2022/09/24 07:51:59;;;;;;;;;;;17.20;66.10;;;;;;4997123;28;19917;-85
2022/09/24 07:54:25;;;;;;;;;;;17.20;66.10;;;;;;5013643;28;19913;-86
2022/09/24 07:56:51;;;;;;;;;;;17.20;66.10;;;;;;5014781;28;19922;-85
2022/09/24 07:59:18;;;;;;;;;;;17.20;66.10;;;;;;5014250;28;19920;-86
2022/09/24 08:01:44;;;;;;;;;;;17.10;66.00;;;;;;5014215;28;19917;-86
2022/09/24 08:04:09;;;;;;;;;;;17.20;66.10;;;;;;5014308;28;19913;-86
2022/09/24 08:06:35;;;;;;;;;;;17.20;66.20;;;;;;5013174;28;20366;-86
2022/09/24 08:09:01;;;;;;;;;;;17.20;66.20;;;;;;5013589;28;20069;-86
2022/09/24 08:11:27;;;;;;;;;;;17.10;66.10;;;;;;5013584;28;19905;-86
2022/09/24 08:13:54;;;;;;;;;;;17.20;66.20;;;;;;4981426;28;19940;-85
2022/09/24 08:16:20;;;;;;;;;;;17.20;66.20;;;;;;5013443;28;19967;-85
2022/09/24 08:18:46;;;;;;;;;;;17.20;66.20;;;;;;4980973;28;20437;-86
2022/09/24 08:21:12;;;;;;;;;;;17.20;66.20;;;;;;5014409;28;19914;-86
2022/09/24 08:23:38;;;;;;;;;;;17.20;66.20;;;;;;5013639;28;19909;-86
2022/09/24 08:26:04;;;;;;;;;;;17.20;66.20;;;;;;5013303;28;20398;-86
2022/09/24 08:28:30;;;;;;;;;;;17.20;66.20;;;;;;5013196;28;19952;-87
2022/09/24 08:30:57;;;;;;;;;;;17.20;66.20;;;;;;5012923;28;19967;-87
2022/09/24 08:33:23;;;;;;;;;;;17.20;66.20;;;;;;5013262;28;20431;-87
2022/09/24 08:35:49;;;;;;;;;;;17.20;66.20;;;;;;5013137;28;19918;-87
2022/09/24 08:38:15;;;;;;;;;;;17.20;66.20;;;;;;5013242;28;19913;-86
2022/09/24 08:40:45;;;;;;;;;;;17.20;66.20;;;;;;5014137;28;19925;-87
2022/09/24 08:43:23;;;;;;;;;;;17.20;66.20;;;;;;5014885;28;19936;-87
2022/09/24 08:48:39;;;;;;;;;;;17.20;66.20;;;;;;5016282;28;20024;-87
2022/09/24 08:51:07;;;;;;;;;;;17.20;66.20;;;;;;5016624;28;20274;-86
2022/09/24 08:53:32;;;;;;;;;;;17.20;66.20;;;;;;5016548;28;19936;-86
2022/09/24 08:56:01;;;;;;;;;;;17.20;66.20;;;;;;4999964;28;19909;-86
2022/09/24 08:58:27;;;;;;;;;;;17.20;66.20;;;;;;5000610;28;19921;-86
2022/09/24 09:00:57;;;;;;;;;;;17.20;66.20;;;;;;5000497;28;20055;-87
2022/09/24 09:03:31;;;;;;;;;;;17.20;66.20;;;;;;5016523;28;19914;-87
2022/09/24 09:06:01;;;;;;;;;;;17.20;66.20;;;;;;5000136;28;19921;-87
2022/09/24 09:08:33;;;;;;;;;;;17.20;66.20;;;;;;4984672;28;19917;-87
2022/09/24 09:11:01;;;;;;;;;;;17.20;66.30;;;;;;5017188;28;19921;-86
2022/09/24 09:13:34;;;;;;;;;;;17.30;66.30;;;;;;5016956;28;19936;-87
2022/09/24 09:16:17;;;;;;;;;;;17.30;66.30;;;;;;5017156;28;19967;-88
2022/09/24 09:18:43;;;;;;;;;;;17.30;66.30;;;;;;5015961;28;20381;-87
2022/09/24 09:21:15;;;;;;;;;;;17.30;66.30;;;;;;5016213;28;19922;-86
2022/09/24 09:23:51;;;;;;;;;;;17.30;66.30;;;;;;4999744;28;20016;-87
2022/09/24 09:26:18;;;;;;;;;;;17.30;66.30;;;;;;4999774;28;19918;-87
2022/09/24 09:28:45;;;;;;;;;;;17.30;66.30;;;;;;5018200;28;19909;-88
2022/09/24 09:31:29;;;;;;;;;;;17.30;66.30;;;;;;5019502;28;19917;-88
2022/09/24 09:34:03;;;;;;;;;;;17.30;66.30;;;;;;5019941;28;19913;-87
2022/09/24 09:36:44;;;;;;;;;;;17.30;66.30;;;;;;5017754;28;19917;-87
2022/09/24 09:39:36;;;;;;;;;;;17.30;66.30;;;;;;5015973;28;20381;-87
2022/09/24 09:42:05;;;;;;;;;;;17.30;66.40;;;;;;4997794;28;19913;-87
2022/09/24 09:44:35;;;;;;;;;;;17.30;66.40;;;;;;4999731;28;20322;-87
2022/09/24 09:47:10;;;;;;;;;;;17.30;66.40;;;;;;5033602;28;19964;-87
2022/09/24 09:49:37;;;;;;;;;;;17.30;66.40;;;;;;5016987;28;20000;-87
2022/09/24 09:52:09;;;;;;;;;;;17.30;66.40;;;;;;5017791;28;19935;-88
2022/09/24 09:54:36;;;;;;;;;;;17.30;66.40;;;;;;5018091;28;19976;-87
2022/09/24 09:57:02;;;;;;;;;;;17.30;66.40;;;;;;5018297;28;20007;-87
2022/09/24 09:59:28;;;;;;;;;;;17.40;66.50;;;;;;5017062;28;19917;-87
2022/09/24 10:01:55;;;;;;;;;;;17.30;66.40;;;;;;5017712;28;19910;-87
2022/09/24 10:04:33;;;;;;;;;;;17.40;66.50;;;;;;5017018;28;19914;-87
2022/09/24 10:07:06;;;;;;;;;;;17.40;66.40;;;;;;5016284;28;20374;-87
2022/09/24 10:09:32;;;;;;;;;;;17.40;66.40;;;;;;5015803;28;20031;-87
2022/09/24 10:12:08;;;;;;;;;;;17.40;66.40;;;;;;5015919;28;19933;-88
2022/09/24 10:14:34;;;;;;;;;;;17.40;66.40;;;;;;5000016;28;19918;-88
2022/09/24 10:17:04;;;;;;;;;;;17.40;66.40;;;;;;5016054;28;19922;-88
2022/09/24 10:19:30;;;;;;;;;;;17.40;66.40;;;;;;5014933;28;19956;-87
2022/09/24 10:21:56;;;;;;;;;;;17.40;66.40;;;;;;4998956;28;19964;-86
2022/09/24 10:24:24;;;;;;;;;;;17.40;66.40;;;;;;5000446;28;19953;-87
2022/09/24 10:26:50;;;;;;;;;;;17.40;66.40;;;;;;5016204;28;19917;-87
2022/09/24 10:32:18;;;;;;;;;;;17.40;67.00;;;;;;5015974;28;19952;-88
2022/09/24 10:34:55;;;;;;;;;;;17.40;66.40;;;;;;5014477;28;19980;-87
2022/09/24 10:37:21;;;;;;;;;;;17.40;66.40;;;;;;4998825;28;20020;-88
2022/09/24 10:39:55;;;;;;;;;;;17.40;66.40;;;;;;4998995;28;19940;-87
2022/09/24 10:42:25;;;;;;;;;;;17.50;66.50;;;;;;4998144;28;19943;-87
2022/09/24 10:44:52;;;;;;;;;;;17.50;66.40;;;;;;5014866;28;19956;-87
2022/09/24 10:47:25;;;;;;;;;;;17.50;66.40;;;;;;5014851;28;19931;-87
2022/09/24 10:49:56;;;;;;;;;;;17.50;66.50;;;;;;5014874;28;19953;-86
2022/09/24 10:52:22;;;;;;;;;;;17.50;66.40;;;;;;5014476;28;19921;-87
2022/09/24 10:54:54;;;;;;;;;;;17.50;66.40;;;;;;5015548;28;19909;-87
2022/09/24 10:57:20;;;;;;;;;;;17.50;66.40;;;;;;4997953;28;19925;-88
2022/09/24 10:59:55;;;;;;;;;;;17.50;66.40;;;;;;4998123;28;20006;-88
2022/09/24 11:02:27;;;;;;;;;;;17.50;66.40;;;;;;5015000;28;20366;-88
2022/09/24 11:05:18;;;;;;;;;;;17.50;66.40;;;;;;5013935;28;19920;-87
2022/09/24 11:07:53;;;;;;;;;;;17.60;66.50;;;;;;4998834;28;19920;-88
2022/09/24 11:10:22;;;;;;;;;;;17.50;66.40;;;;;;5014505;28;20011;-89
2022/09/24 11:13:07;;;;;;;;;;;17.50;66.40;;;;;;5015537;28;19910;-82
2022/09/24 11:15:42;;;;;;;;;;;17.50;66.40;;;;;;5014345;28;20382;-93
2022/09/24 11:18:26;;;;;;;;;;;17.60;66.50;;;;;;5013896;28;20016;-86
2022/09/24 11:21:12;;;;;;;;;;;17.60;66.50;;;;;;5013962;28;20355;-85
2022/09/24 11:23:45;;;;;;;;;;;17.60;66.50;;;;;;5014380;28;19917;-87
2022/09/24 11:26:13;;;;;;;;;;;17.60;66.60;;;;;;5014186;28;19928;-87
2022/09/24 11:28:42;;;;;;;;;;;17.50;66.50;;;;;;5014378;28;19909;-85
2022/09/24 11:31:20;;;;;;;;;;;17.60;66.60;;;;;;5014988;28;20281;-89
2022/09/24 11:34:00;;;;;;;;;;;17.60;66.50;;;;;;5015111;28;19917;-88
2022/09/24 11:36:28;;;;;;;;;;;17.60;66.50;;;;;;5013921;28;19925;-90
2022/09/24 11:39:02;;;;;;;;;;;17.60;66.50;;;;;;5015027;28;19967;-87
2022/09/24 11:41:48;;;;;;;;;;;17.60;66.60;;;;;;5015341;28;19914;-90
2022/09/24 11:44:33;;;;;;;;;;;17.60;66.50;;;;;;4997645;28;19913;-89
2022/09/24 11:46:58;;;;;;;;;;;17.60;66.50;;;;;;5014091;28;20003;-85
2022/09/24 11:49:33;;;;;;;;;;;17.60;66.50;;;;;;4997981;28;19959;-87
2022/09/24 11:52:02;;;;;;;;;;;17.70;66.60;;;;;;5013922;28;19917;-85
2022/09/24 11:54:33;;;;;;;;;;;17.70;66.60;;;;;;5013784;28;19917;-87
2022/09/24 11:57:19;;;;;;;;;;;17.70;66.60;;;;;;5013611;28;19971;-88
2022/09/24 12:00:00;;;;;;;;;;;17.70;66.60;;;;;;5013984;28;19914;-86
2022/09/24 12:02:36;;;;;;;;;;;17.60;66.60;;;;;;4997213;28;19917;-86
2022/09/24 12:05:06;;;;;;;;;;;17.70;66.60;;;;;;5013671;28;19913;-86
2022/09/24 12:07:35;;;;;;;;;;;17.60;66.60;;;;;;5013444;28;19910;-89
2022/09/24 12:10:24;;;;;;;;;;;17.70;66.60;;;;;;5013428;28;19921;-89
2022/09/24 12:12:53;;;;;;;;;;;17.70;66.60;;;;;;5011361;28;20041;-89
2022/09/24 12:15:22;;;;;;;;;;;17.70;66.60;;;;;;4996520;28;19925;-88
2022/09/24 12:18:01;;;;;;;;;;;17.70;66.60;;;;;;5016922;28;20024;-89
2022/09/24 12:20:28;;;;;;;;;;;17.70;66.60;;;;;;5017208;28;19913;-88
2022/09/24 12:22:58;;;;;;;;;;;17.70;66.60;;;;;;5017716;28;19913;-88
2022/09/24 12:25:26;;;;;;;;;;;17.70;66.60;;;;;;5000745;28;19960;-89
2022/09/24 12:27:52;;;;;;;;;;;17.70;66.60;;;;;;5017070;28;19940;-90
2022/09/24 12:33:24;;;;;;;;;;;17.80;66.70;;;;;;5018223;28;20342;-89
2022/09/24 12:35:54;;;;;;;;;;;17.70;66.60;;;;;;5000931;28;19929;-88
2022/09/24 12:38:27;;;;;;;;;;;17.70;66.60;;;;;;5016590;28;19948;-88
2022/09/24 12:41:05;;;;;;;;;;;17.70;66.70;;;;;;5017001;28;20414;-89
2022/09/24 12:43:36;;;;;;;;;;;17.70;66.70;;;;;;5016681;28;19955;-87
2022/09/24 12:46:03;;;;;;;;;;;17.80;66.70;;;;;;5016604;28;19948;-88
2022/09/24 12:48:30;;;;;;;;;;;17.80;66.70;;;;;;5016408;28;20288;-88
2022/09/24 12:51:00;;;;;;;;;;;17.80;66.70;;;;;;5016695;28;19924;-90
2022/09/24 12:53:36;;;;;;;;;;;17.80;66.70;;;;;;4999873;28;19921;-92
2022/09/24 12:56:03;;;;;;;;;;;17.80;66.70;;;;;;5000604;28;20259;-88
2022/09/24 12:58:35;;;;;;;;;;;17.80;66.70;;;;;;5016149;28;19928;-89
2022/09/24 13:01:20;;;;;;;;;;;17.90;66.80;;;;;;5016844;28;20006;-89
2022/09/24 13:04:00;;;;;;;;;;;17.80;66.70;;;;;;5017345;28;19924;-88
2022/09/24 13:06:33;;;;;;;;;;;17.80;66.70;;;;;;5016765;28;19925;-91
2022/09/24 13:08:59;;;;;;;;;;;17.80;66.70;;;;;;5016128;28;19914;-89
2022/09/24 13:11:28;;;;;;;;;;;17.80;66.70;;;;;;5016281;28;19909;-89
2022/09/24 13:14:04;;;;;;;;;;;17.90;66.80;;;;;;5016250;28;19914;-89
2022/09/24 13:16:36;;;;;;;;;;;17.80;66.70;;;;;;4999635;28;19922;-89
2022/09/24 13:19:02;;;;;;;;;;;17.80;66.70;;;;;;5016346;28;19914;-88
2022/09/24 13:21:29;;;;;;;;;;;17.90;66.80;;;;;;4999716;28;19949;-89
2022/09/24 13:23:55;;;;;;;;;;;17.90;66.80;;;;;;5015839;28;19910;-90
2022/09/24 13:26:24;;;;;;;;;;;17.90;66.80;;;;;;5016810;28;19936;-90
2022/09/24 13:28:57;;;;;;;;;;;17.90;66.80;;;;;;5015664;28;20054;-89
2022/09/24 13:31:26;;;;;;;;;;;17.80;66.70;;;;;;5015790;28;19959;-88
2022/09/24 13:33:57;;;;;;;;;;;17.90;66.80;;;;;;5016361;28;19953;-89
2022/09/24 13:36:35;;;;;;;;;;;17.90;66.80;;;;;;5015872;28;19916;-88
2022/09/24 13:39:21;;;;;;;;;;;17.90;66.80;;;;;;5015985;28;20317;-88
2022/09/24 13:41:51;;;;;;;;;;;17.90;66.80;;;;;;5015540;28;19920;-89
2022/09/24 13:44:29;;;;;;;;;;;17.90;66.80;;;;;;4999443;28;19920;-88
2022/09/24 13:47:05;;;;;;;;;;;17.90;66.80;;;;;;5015718;28;19913;-88
2022/09/24 13:49:31;;;;;;;;;;;17.90;66.80;;;;;;4999926;28;19920;-87
2022/09/24 13:52:17;;;;;;;;;;;17.90;66.80;;;;;;5015768;28;20427;-89
2022/09/24 13:54:55;;;;;;;;;;;17.90;66.80;;;;;;5015349;28;20075;-88
2022/09/24 13:57:25;;;;;;;;;;;17.90;66.80;;;;;;5015516;28;19918;-88
2022/09/24 14:00:25;;;;;;;;;;;17.90;66.80;;;;;;5016278;28;19917;-88
2022/09/24 14:02:53;;;;;;;;;;;18.00;66.80;;;;;;4977675;28;19919;-88
2022/09/24 14:05:20;;;;;;;;;;;18.00;66.80;;;;;;5014802;28;19968;-88
2022/09/24 14:08:01;;;;;;;;;;;18.00;66.80;;;;;;5014799;28;19972;-89
2022/09/24 14:10:27;;;;;;;;;;;17.90;66.80;;;;;;5016188;28;19910;-89
2022/09/24 14:12:59;;;;;;;;;;;18.00;66.80;;;;;;4998635;28;20251;-88
2022/09/24 14:15:25;;;;;;;;;;;18.00;67.50;;;;;;5014549;28;20012;-87
2022/09/24 14:17:55;;;;;;;;;;;18.00;66.80;;;;;;5015546;28;19957;-85
2022/09/24 14:20:21;;;;;;;;;;;18.00;66.80;;;;;;4998571;28;19960;-87
2022/09/24 14:22:46;;;;;;;;;;;18.00;66.80;;;;;;5015610;28;20362;-87
2022/09/24 14:25:18;;;;;;;;;;;18.00;66.80;;;;;;4998404;28;19964;-88
2022/09/24 14:27:47;;;;;;;;;;;18.00;66.80;;;;;;5014940;28;19910;-88
2022/09/24 14:30:17;;;;;;;;;;;18.00;66.80;;;;;;4998490;28;19916;-88
2022/09/24 14:32:43;;;;;;;;;;;18.00;66.80;;;;;;5014523;28;19913;-88
2022/09/24 14:35:11;;;;;;;;;;;18.00;66.80;;;;;;4999003;28;20004;-88
2022/09/24 14:37:38;;;;;;;;;;;18.00;66.80;;;;;;5014569;28;19917;-88
2022/09/24 14:40:14;;;;;;;;;;;18.00;66.80;;;;;;5013782;28;19913;-88